Time;durP1;ratioP1;P1;durP2;ratioP2;P2;SDS_P1;SDS_P2;PMS_P1;PMS_P2;Temp;Humidity;BMP_temperature;BMP_pressure;BME280_temperature;BME280_humidity;BME280_pressure;Samples;Min_cycle;Max_cycle;Signal;HPM_P1;HPM_P2
2022/09/05 00:01:24;;;;;;;;;;;21.00;67.50;;;;;;5052855;28;20134;-78
2022/09/05 00:04:00;;;;;;;2.10;1.40;;;21.00;67.50;;;;;;5044992;28;19908;-77
2022/09/05 00:06:30;;;;;;;3.42;1.40;;;21.00;67.40;;;;;;5032377;28;20672;-78
2022/09/05 00:09:17;;;;;;;2.78;1.30;;;21.00;67.40;;;;;;5050584;28;20415;-78
2022/09/05 00:11:50;;;;;;;2.70;1.50;;;20.90;67.50;;;;;;5030583;28;20017;-79
2022/09/05 00:14:36;;;;;;;3.03;1.40;;;20.90;67.60;;;;;;5048584;28;20032;-77
2022/09/05 00:17:56;;;;;;;2.08;1.30;;;20.90;67.60;;;;;;4994822;28;20102;-78
2022/09/05 00:20:45;;;;;;;2.15;1.30;;;20.90;67.50;;;;;;5013443;28;20035;-79
2022/09/05 00:23:29;;;;;;;3.47;1.45;;;21.00;67.60;;;;;;5018529;28;20037;-79
2022/09/05 00:26:07;;;;;;;2.53;1.40;;;20.90;67.80;;;;;;5052844;28;20031;-77
2022/09/05 00:28:59;;;;;;;2.38;1.35;;;21.00;68.00;;;;;;5044957;28;20029;-79
2022/09/05 00:31:48;;;;;;;1.80;1.30;;;21.00;67.80;;;;;;5044813;28;20096;-78
2022/09/05 00:34:44;;;;;;;2.30;1.30;;;21.00;67.80;;;;;;5050865;28;20040;-79
2022/09/05 00:37:10;;;;;;;2.25;1.20;;;21.00;67.80;;;;;;5035739;28;20081;-79
2022/09/05 00:39:39;;;;;;;4.13;1.60;;;21.00;68.40;;;;;;5034518;28;20587;-78
2022/09/05 00:42:24;;;;;;;2.08;1.30;;;21.00;67.80;;;;;;5052067;28;20021;-78
2022/09/05 00:45:00;;;;;;;1.58;1.20;;;21.00;67.80;;;;;;5020994;28;20155;-79
2022/09/05 00:47:36;;;;;;;2.72;1.50;;;21.00;67.80;;;;;;5034569;28;20036;-77
2022/09/05 00:50:13;;;;;;;2.42;1.40;;;21.00;67.80;;;;;;5033943;28;20017;-78
2022/09/05 00:52:47;;;;;;;1.58;1.17;;;21.00;67.80;;;;;;5046020;28;20111;-77
2022/09/05 00:55:20;;;;;;;3.10;1.27;;;21.00;67.70;;;;;;5033780;28;20017;-78
2022/09/05 00:57:49;;;;;;;2.60;1.50;;;21.00;67.70;;;;;;5050704;28;20044;-80
2022/09/05 01:00:21;;;;;;;1.80;1.10;;;20.90;67.80;;;;;;5033616;28;20025;-80
2022/09/05 01:03:15;;;;;;;1.80;1.20;;;20.90;67.80;;;;;;5034085;28;20029;-79
2022/09/05 01:06:10;;;;;;;2.40;1.40;;;20.90;67.80;;;;;;5026685;28;20514;-79
2022/09/05 01:09:09;;;;;;;3.20;1.33;;;20.90;67.80;;;;;;5033755;28;20033;-79
2022/09/05 01:11:55;;;;;;;2.60;1.42;;;21.00;68.00;;;;;;5034097;28;20025;-80
2022/09/05 01:14:45;;;;;;;2.53;1.30;;;21.00;68.00;;;;;;5049881;28;20104;-79
2022/09/05 01:17:51;;;;;;;1.80;1.20;;;21.00;68.20;;;;;;5033889;28;20052;-77
2022/09/05 01:20:35;;;;;;;2.17;1.55;;;21.00;68.10;;;;;;5031100;28;20091;-79
2022/09/05 01:23:21;;;;;;;1.75;1.10;;;21.00;68.00;;;;;;5033643;28;20041;-79
2022/09/05 01:26:35;;;;;;;2.13;1.40;;;21.00;68.00;;;;;;5033540;28;20031;-78
2022/09/05 01:29:07;;;;;;;1.83;1.10;;;21.00;68.10;;;;;;5031258;28;20029;-79
2022/09/05 01:31:44;;;;;;;2.35;1.40;;;21.00;68.10;;;;;;5033460;28;20025;-79
2022/09/05 01:34:23;;;;;;;1.75;1.20;;;20.90;67.90;;;;;;5051537;28;20460;-77
2022/09/05 01:37:07;;;;;;;2.83;1.58;;;20.90;68.00;;;;;;5050213;28;20052;-78
2022/09/05 01:39:40;;;;;;;2.28;1.40;;;20.90;68.00;;;;;;5051284;28;20088;-79
2022/09/05 01:42:30;;;;;;;2.72;1.40;;;20.90;68.00;;;;;;5033854;28;20107;-78
2022/09/05 01:45:18;;;;;;;1.60;1.20;;;21.00;68.10;;;;;;5030155;28;20025;-78
2022/09/05 01:48:14;;;;;;;2.38;1.30;;;20.90;68.00;;;;;;5036478;28;20029;-78
2022/09/05 01:50:55;;;;;;;2.28;1.40;;;20.90;68.10;;;;;;5043910;28;20074;-77
2022/09/05 01:53:49;;;;;;;2.38;1.20;;;20.90;68.20;;;;;;5033117;28;20113;-78
2022/09/05 01:56:37;;;;;;;2.40;1.40;;;20.90;68.20;;;;;;5031642;28;20035;-79
2022/09/05 01:59:12;;;;;;;2.53;1.40;;;20.90;68.70;;;;;;5031754;28;20032;-79
2022/09/05 02:02:13;;;;;;;1.95;1.23;;;20.90;68.30;;;;;;5043695;28;20503;-79
2022/09/05 02:05:14;;;;;;;2.45;1.48;;;20.90;68.30;;;;;;5036346;28;20075;-77
2022/09/05 02:08:14;;;;;;;2.00;1.23;;;21.00;68.30;;;;;;5029565;28;20056;-77
2022/09/05 02:11:11;;;;;;;3.35;1.60;;;21.00;68.30;;;;;;5050858;28;20491;-78
2022/09/05 02:13:37;;;;;;;2.30;1.30;;;21.00;68.20;;;;;;5032776;28;20506;-79
2022/09/05 02:16:07;;;;;;;2.80;1.40;;;21.00;68.30;;;;;;5031835;28;20037;-78
2022/09/05 02:18:35;;;;;;;1.70;1.38;;;20.90;68.30;;;;;;5048843;28;20038;-77
2022/09/05 02:21:08;;;;;;;3.53;1.60;;;20.90;68.20;;;;;;5051245;28;20064;-77
2022/09/05 02:23:45;;;;;;;2.13;1.40;;;21.00;68.20;;;;;;5050726;28;20116;-78
2022/09/05 02:26:14;;;;;;;1.38;1.10;;;20.90;68.20;;;;;;5021951;28;20032;-77
2022/09/05 02:28:54;;;;;;;2.30;1.20;;;20.90;68.20;;;;;;5035203;28;20079;-76
2022/09/05 02:31:28;;;;;;;2.22;1.40;;;20.90;68.20;;;;;;5036509;28;20438;-77
2022/09/05 02:34:01;;;;;;;2.67;1.30;;;20.90;68.30;;;;;;5027121;28;20119;-78
2022/09/05 02:36:33;;;;;;;3.50;1.70;;;20.90;68.40;;;;;;5037290;28;20033;-78
2022/09/05 02:39:14;;;;;;;4.93;1.80;;;20.90;68.60;;;;;;5037259;28;20025;-77
2022/09/05 02:42:06;;;;;;;2.03;1.23;;;20.90;68.70;;;;;;5054678;28;20096;-78
2022/09/05 02:44:39;;;;;;;8.38;2.28;;;20.90;68.70;;;;;;5050634;28;20103;-78
2022/09/05 02:47:42;;;;;;;7.43;2.10;;;20.90;69.80;;;;;;5052854;28;20025;-78
2022/09/05 02:50:43;;;;;;;5.35;1.98;;;21.00;69.60;;;;;;5035438;28;20028;-78
2022/09/05 02:53:12;;;;;;;5.65;1.67;;;21.00;69.70;;;;;;5025081;28;20025;-78
2022/09/05 02:56:01;;;;;;;4.82;1.90;;;21.00;69.70;;;;;;5052584;28;20017;-78
2022/09/05 02:59:03;;;;;;;6.32;1.95;;;21.10;69.80;;;;;;5036855;28;20074;-78
2022/09/05 03:01:57;;;;;;;4.85;2.00;;;21.10;69.80;;;;;;5046508;28;20103;-79
2022/09/05 03:04:25;;;;;;;5.05;2.00;;;21.10;70.10;;;;;;5036258;28;20082;-78
2022/09/05 03:07:05;;;;;;;5.18;2.00;;;21.30;70.30;;;;;;5036756;28;20083;-77
2022/09/05 03:10:02;;;;;;;7.63;2.05;;;21.30;71.50;;;;;;5040168;28;20024;-79
2022/09/05 03:12:54;;;;;;;6.00;2.10;;;21.50;72.00;;;;;;5048184;28;20520;-80
2022/09/05 03:15:34;;;;;;;5.35;2.28;;;21.60;73.60;;;;;;5053924;28;20033;-79
2022/09/05 03:18:15;;;;;;;4.32;1.80;;;21.70;73.70;;;;;;5036208;28;20033;-77
2022/09/05 03:20:55;;;;;;;6.60;2.00;;;21.80;73.90;;;;;;5035379;28;20040;-78
2022/09/05 03:23:40;;;;;;;5.00;1.92;;;21.90;74.50;;;;;;5036094;28;20071;-78
2022/09/05 03:26:52;;;;;;;5.63;2.20;;;21.90;74.40;;;;;;5044837;28;20568;-78
2022/09/05 03:29:45;;;;;;;7.57;2.28;;;22.00;74.60;;;;;;5027557;28;20037;-78
2022/09/05 03:32:32;;;;;;;6.53;1.98;;;22.10;75.70;;;;;;5035880;28;20024;-78
2022/09/05 03:38:01;;;;;;;7.07;2.47;;;22.20;76.80;;;;;;5052312;28;20598;-78
2022/09/05 03:40:27;;;;;;;8.48;2.78;;;22.30;76.70;;;;;;5059932;28;20109;-79
2022/09/05 03:43:33;;;;;;;11.13;2.97;;;22.40;76.90;;;;;;5054363;28;20052;-78
2022/09/05 03:46:20;;;;;;;12.27;3.28;;;22.40;76.50;;;;;;5055214;28;20034;-77
2022/09/05 03:49:10;;;;;;;15.48;3.38;;;22.50;76.50;;;;;;5026749;28;20048;-79
2022/09/05 03:51:43;;;;;;;;;;;22.50;75.90;;;;;;5033885;28;20026;-78
2022/09/05 03:54:31;;;;;;;11.77;3.28;;;22.50;76.20;;;;;;5030223;28;19920;-78
2022/09/05 03:57:24;;;;;;;14.40;4.00;;;22.50;76.00;;;;;;5032582;28;20037;-78
2022/09/05 04:00:08;;;;;;;12.90;3.55;;;22.60;75.90;;;;;;5039262;28;20033;-79
2022/09/05 04:02:58;;;;;;;14.90;3.78;;;22.60;75.60;;;;;;5024936;28;20101;-77
2022/09/05 04:05:30;;;;;;;14.32;3.65;;;22.70;75.50;;;;;;5026463;28;20484;-77
2022/09/05 04:08:20;;;;;;;9.95;3.60;;;22.70;75.10;;;;;;5029599;28;20048;-78
2022/09/05 04:10:55;;;;;;;13.52;3.28;;;22.70;74.90;;;;;;5030823;28;20072;-78
2022/09/05 04:14:12;;;;;;;13.15;2.92;;;22.70;74.60;;;;;;5036879;28;20030;-78
2022/09/05 04:16:48;;;;;;;13.57;3.58;;;22.50;74.70;;;;;;5017913;28;20034;-78
2022/09/05 04:19:39;;;;;;;14.88;3.80;;;22.40;75.00;;;;;;5025421;28;20034;-76
2022/09/05 04:22:33;;;;;;;11.30;3.13;;;22.40;75.30;;;;;;5034413;28;20033;-80
2022/09/05 04:25:14;;;;;;;10.85;3.42;;;22.30;75.60;;;;;;5026534;28;20052;-77
2022/09/05 04:27:52;;;;;;;11.65;3.28;;;22.20;75.50;;;;;;5019704;28;20030;-77
2022/09/05 04:30:45;;;;;;;15.00;3.40;;;22.20;75.40;;;;;;5029653;28;20034;-77
2022/09/05 04:33:27;;;;;;;14.60;3.70;;;22.10;75.50;;;;;;5021566;28;20116;-78
2022/09/05 04:36:22;;;;;;;12.20;3.55;;;22.10;75.60;;;;;;5018127;28;20033;-78
2022/09/05 04:39:24;;;;;;;10.40;3.58;;;22.00;75.70;;;;;;5023462;28;20105;-78
2022/09/05 04:42:15;;;;;;;14.68;3.90;;;21.90;75.70;;;;;;5026745;28;20086;-77
2022/09/05 04:44:56;;;;;;;11.88;4.07;;;21.90;75.90;;;;;;5018117;28;20036;-78
2022/09/05 04:47:33;;;;;;;9.75;3.38;;;21.90;75.90;;;;;;5028519;28;20029;-77
2022/09/05 04:50:13;;;;;;;11.77;3.30;;;21.80;76.40;;;;;;5028054;28;20037;-76
2022/09/05 04:53:05;;;;;;;12.68;3.63;;;21.80;75.80;;;;;;5020014;28;20401;-78
2022/09/05 04:55:42;;;;;;;10.25;3.60;;;21.80;75.90;;;;;;5023444;28;20033;-81
2022/09/05 04:58:36;;;;;;;13.07;4.00;;;21.80;75.80;;;;;;5016094;28;20028;-78
2022/09/05 05:01:05;;;;;;;13.63;3.35;;;21.80;75.80;;;;;;5018053;28;20403;-75
2022/09/05 05:03:33;;;;;;;12.07;3.42;;;21.70;76.30;;;;;;5030486;28;20097;-77
2022/09/05 05:06:26;;;;;;;9.23;3.40;;;21.70;75.70;;;;;;5024522;28;20037;-78
2022/09/05 05:09:00;;;;;;;10.13;2.83;;;21.70;75.60;;;;;;5024809;28;20124;-77
2022/09/05 05:11:48;;;;;;;12.55;3.38;;;21.80;75.40;;;;;;5021008;28;20029;-78
2022/09/05 05:22:03;;;;;;;11.10;3.22;;;21.70;75.40;;;;;;5688104;22;20146;-78
2022/09/05 05:24:45;;;;;;;13.55;3.58;;;21.80;74.80;;;;;;5043335;28;20114;-78
2022/09/05 05:27:47;;;;;;;15.52;3.53;;;21.70;74.60;;;;;;5034135;28;20033;-78
2022/09/05 05:30:27;;;;;;;10.23;3.65;;;21.70;74.50;;;;;;5044682;28;20111;-78
2022/09/05 05:32:54;;;;;;;11.77;3.33;;;21.70;74.40;;;;;;5044195;28;20108;-75
2022/09/05 05:35:31;;;;;;;9.55;3.45;;;21.60;74.30;;;;;;5032316;28;20070;-75
2022/09/05 05:38:12;;;;;;;9.88;3.38;;;21.60;73.90;;;;;;5028546;28;20033;-77
2022/09/05 05:40:46;;;;;;;13.30;3.67;;;21.60;73.70;;;;;;5025890;28;20045;-76
2022/09/05 05:43:25;;;;;;;8.57;3.30;;;21.60;73.80;;;;;;5025349;28;20029;-77
2022/09/05 05:45:57;;;;;;;11.30;3.72;;;21.60;73.80;;;;;;5025598;28;20112;-76
2022/09/05 05:48:32;;;;;;;12.55;3.42;;;21.50;73.70;;;;;;5024344;28;20029;-76
2022/09/05 05:51:12;;;;;;;9.60;3.50;;;21.60;73.70;;;;;;5025616;28;20397;-77
2022/09/05 05:54:02;;;;;;;10.25;3.60;;;21.60;73.60;;;;;;5024524;28;20498;-77
2022/09/05 05:57:00;;;;;;;10.90;3.53;;;21.60;73.60;;;;;;5025191;28;20488;-76
2022/09/05 05:59:45;;;;;;;10.98;3.78;;;21.60;73.40;;;;;;5024721;28;20363;-77
2022/09/05 06:02:38;;;;;;;10.43;3.45;;;21.60;73.90;;;;;;5023737;28;20032;-77
2022/09/05 06:05:10;;;;;;;11.82;3.47;;;21.60;73.20;;;;;;5026790;28;20548;-78
2022/09/05 06:08:00;;;;;;;10.57;3.25;;;21.60;73.20;;;;;;5026667;28;20033;-78
2022/09/05 06:10:57;;;;;;;9.38;3.20;;;21.60;73.30;;;;;;5026572;28;20140;-77
2022/09/05 06:13:34;;;;;;;10.85;3.35;;;21.50;73.40;;;;;;5027561;28;20835;-76
2022/09/05 06:16:34;;;;;;;10.98;3.50;;;21.50;73.50;;;;;;5027030;28;20026;-77
2022/09/05 06:19:28;;;;;;;10.35;3.40;;;21.50;73.50;;;;;;5029316;28;20109;-77
2022/09/05 06:22:29;;;;;;;8.13;3.33;;;21.50;73.60;;;;;;5028851;28;20072;-76
2022/09/05 06:25:14;;;;;;;9.05;3.28;;;21.50;73.60;;;;;;5027691;28;20026;-77
2022/09/05 06:28:14;;;;;;;8.43;3.30;;;21.50;73.70;;;;;;5028361;28;20036;-76
2022/09/05 06:30:52;;;;;;;8.48;3.53;;;21.50;73.70;;;;;;5027138;28;20031;-77
2022/09/05 06:33:37;;;;;;;11.70;3.35;;;21.40;73.60;;;;;;5027717;28;20038;-76
2022/09/05 06:36:23;;;;;;;6.47;3.10;;;21.50;73.60;;;;;;5027453;28;20033;-77
2022/09/05 06:39:04;;;;;;;9.10;3.47;;;21.50;73.60;;;;;;5027593;28;20083;-76
2022/09/05 06:41:59;;;;;;;7.72;3.00;;;21.50;73.50;;;;;;5027343;28;20025;-76
2022/09/05 06:44:46;;;;;;;9.98;3.58;;;21.50;73.40;;;;;;5028850;28;20089;-78
2022/09/05 06:47:18;;;;;;;8.30;3.40;;;21.50;73.30;;;;;;5028080;28;20030;-78
2022/09/05 06:50:19;;;;;;;7.57;2.97;;;21.50;73.20;;;;;;5028090;28;20333;-78
2022/09/05 06:53:23;;;;;;;8.57;3.42;;;21.50;73.20;;;;;;5028727;28;20041;-77
2022/09/05 06:56:08;;;;;;;7.68;3.08;;;21.50;73.10;;;;;;5029288;28;20029;-77
2022/09/05 06:59:20;;;;;;;8.05;3.10;;;21.50;73.20;;;;;;5027166;28;20124;-77
2022/09/05 07:01:56;;;;;;;10.27;3.10;;;21.50;73.20;;;;;;5027375;28;20029;-78
2022/09/05 07:04:47;;;;;;;8.25;3.38;;;21.50;73.70;;;;;;5028806;28;20111;-76
2022/09/05 07:07:26;;;;;;;7.93;3.00;;;21.50;73.10;;;;;;5027618;28;20037;-78
2022/09/05 07:09:58;;;;;;;8.35;3.00;;;21.50;73.10;;;;;;5028849;28;20022;-78
2022/09/05 07:12:28;;;;;;;6.10;2.75;;;21.50;73.00;;;;;;5027668;28;20025;-77
2022/09/05 07:15:10;;;;;;;8.47;3.43;;;21.60;73.00;;;;;;5027276;28;20771;-77
2022/09/05 07:18:12;;;;;;;7.90;2.90;;;21.60;72.80;;;;;;5028016;28;20174;-76
2022/09/05 07:20:53;;;;;;;8.95;2.85;;;21.60;72.60;;;;;;5027558;28;20033;-77
2022/09/05 07:23:45;;;;;;;7.07;3.17;;;21.70;72.30;;;;;;5028849;28;20073;-77
2022/09/05 07:26:12;;;;;;;7.93;2.97;;;21.80;72.20;;;;;;5027563;28;20033;-77
2022/09/05 07:28:44;;;;;;;7.07;2.83;;;21.80;71.90;;;;;;5027083;28;20033;-76
2022/09/05 07:31:16;;;;;;;8.00;3.15;;;21.80;71.70;;;;;;5026822;28;20061;-76
2022/09/05 07:33:44;;;;;;;7.57;3.30;;;21.80;71.70;;;;;;5026951;28;20053;-76
2022/09/05 07:36:22;;;;;;;7.22;3.17;;;21.80;71.80;;;;;;5026859;28;20033;-77
2022/09/05 07:38:57;;;;;;;6.85;3.10;;;21.70;71.90;;;;;;5027098;28;20499;-77
2022/09/05 07:41:32;;;;;;;7.90;3.47;;;21.70;72.10;;;;;;5028345;28;20451;-77
2022/09/05 07:44:05;;;;;;;5.78;3.03;;;21.70;72.20;;;;;;5028560;28;20400;-78
2022/09/05 07:46:35;;;;;;;6.55;3.15;;;21.70;72.00;;;;;;5027628;28;20059;-78
2022/09/05 07:49:11;;;;;;;5.20;2.53;;;21.80;72.00;;;;;;5027440;28;20029;-77
2022/09/05 07:51:45;;;;;;;5.95;2.80;;;21.80;71.90;;;;;;5026742;28;20034;-76
2022/09/05 07:54:19;;;;;;;6.38;3.28;;;21.80;71.60;;;;;;5027387;28;20546;-78
2022/09/05 07:57:02;;;;;;;7.10;3.00;;;21.90;71.50;;;;;;5028959;28;20108;-77
2022/09/05 07:59:32;;;;;;;6.93;3.05;;;21.90;71.40;;;;;;5026224;28;20240;-78
2022/09/05 08:02:00;;;;;;;7.10;3.40;;;21.90;71.20;;;;;;5029300;28;20025;-77
2022/09/05 08:04:27;;;;;;;8.50;3.50;;;22.00;71.00;;;;;;5028492;28;20038;-78
2022/09/05 08:07:05;;;;;;;7.68;3.00;;;22.00;70.90;;;;;;5028159;28;20030;-78
2022/09/05 08:09:36;;;;;;;7.40;3.53;;;22.10;70.80;;;;;;5025787;28;20048;-77
2022/09/05 08:12:14;;;;;;;6.13;3.30;;;22.20;70.40;;;;;;5027179;28;20108;-78
2022/09/05 08:14:48;;;;;;;8.18;3.33;;;22.20;70.40;;;;;;5038249;28;20037;-77
2022/09/05 08:17:19;;;;;;;6.05;3.03;;;22.30;70.30;;;;;;5047314;28;20129;-78
2022/09/05 08:20:10;;;;;;;6.20;3.10;;;22.30;70.00;;;;;;5044347;28;20661;-76
2022/09/05 08:23:02;;;;;;;;;;;22.30;70.30;;;;;;5046357;28;20048;-78
2022/09/05 08:25:35;;;;;;;5.78;2.80;;;22.30;70.10;;;;;;5023625;28;19912;-78
2022/09/05 08:28:18;;;;;;;6.40;3.20;;;22.30;70.10;;;;;;5046102;28;20265;-77
2022/09/05 08:30:54;;;;;;;7.20;3.20;;;22.30;70.00;;;;;;5047351;28;20032;-77
2022/09/05 08:33:24;;;;;;;6.47;3.42;;;22.30;69.90;;;;;;5047700;28;20618;-77
2022/09/05 08:35:51;;;;;;;7.50;2.97;;;22.40;69.90;;;;;;5046443;28;20024;-78
2022/09/05 08:38:19;;;;;;;6.15;3.03;;;22.40;69.90;;;;;;5045908;28;20523;-77
2022/09/05 08:40:58;;;;;;;7.20;2.92;;;22.40;69.70;;;;;;5045875;28;20032;-78
2022/09/05 08:43:32;;;;;;;6.32;2.97;;;22.40;69.60;;;;;;5046116;28;20040;-77
2022/09/05 08:46:43;;;;;;;7.55;3.17;;;22.50;69.70;;;;;;5046137;28;20021;-78
2022/09/05 08:49:42;;;;;;;7.30;2.80;;;22.50;69.60;;;;;;4966442;28;20027;-77
2022/09/05 08:52:30;;;;;;;6.15;2.90;;;22.50;69.40;;;;;;4967332;28;20033;-78
2022/09/05 08:54:56;;;;;;;6.95;3.17;;;22.50;69.30;;;;;;5036838;28;20029;-78
2022/09/05 08:57:59;;;;;;;5.20;2.88;;;22.60;69.20;;;;;;5048145;28;20068;-78
2022/09/05 09:00:34;;;;;;;5.28;2.80;;;22.70;69.10;;;;;;5047735;28;20029;-77
2022/09/05 09:03:28;;;;;;;5.57;3.13;;;22.70;69.00;;;;;;5047403;28;20096;-77
2022/09/05 09:05:54;;;;;;;5.43;2.90;;;22.70;68.90;;;;;;5046522;28;20039;-78
2022/09/05 09:08:49;;;;;;;7.85;2.97;;;22.70;69.00;;;;;;5045873;28;20033;-78
2022/09/05 09:11:51;;;;;;;5.70;2.75;;;22.70;69.00;;;;;;5034496;28;20148;-77
2022/09/05 09:14:29;;;;;;;4.82;2.75;;;22.70;69.00;;;;;;4964636;28;20510;-78
2022/09/05 09:17:20;;;;;;;5.90;3.15;;;22.70;69.20;;;;;;5048141;28;20032;-78
2022/09/05 09:20:12;;;;;;;6.57;2.92;;;22.60;69.10;;;;;;5046075;28;20040;-78
2022/09/05 09:22:57;;;;;;;5.93;2.83;;;22.70;69.10;;;;;;5046624;28;20082;-77
2022/09/05 09:25:26;;;;;;;5.40;2.80;;;22.70;69.20;;;;;;5046829;28;20100;-77
2022/09/05 09:28:13;;;;;;;5.07;2.78;;;22.70;69.20;;;;;;5046653;28;20032;-78
2022/09/05 09:30:46;;;;;;;6.30;3.00;;;22.70;69.30;;;;;;5048030;28;20025;-77
2022/09/05 09:33:19;;;;;;;5.45;3.00;;;22.70;69.20;;;;;;5047003;28;20044;-78
2022/09/05 09:35:54;;;;;;;5.30;2.55;;;22.70;69.20;;;;;;5045720;28;20478;-78
2022/09/05 09:39:01;;;;;;;5.80;2.70;;;22.70;69.10;;;;;;5044653;28;20537;-76
2022/09/05 09:41:46;;;;;;;5.28;2.80;;;22.80;68.90;;;;;;5023752;28;20086;-78
2022/09/05 09:44:26;;;;;;;6.45;2.78;;;22.70;68.80;;;;;;5046291;28;20025;-78
2022/09/05 09:46:52;;;;;;;7.07;2.40;;;22.80;68.70;;;;;;5045721;28;20048;-78
2022/09/05 09:49:56;;;;;;;4.95;2.60;;;22.80;68.70;;;;;;5045400;28;20025;-77
2022/09/05 09:52:33;;;;;;;5.25;2.80;;;22.80;68.60;;;;;;4965735;28;20799;-77
2022/09/05 09:55:40;;;;;;;4.78;2.45;;;22.90;68.60;;;;;;4949399;28;20082;-77
2022/09/05 09:58:24;;;;;;;4.90;2.60;;;22.80;68.70;;;;;;5031035;28;20412;-78
2022/09/05 10:01:07;;;;;;;5.47;2.63;;;22.80;68.70;;;;;;5045416;28;20021;-77
2022/09/05 10:03:56;;;;;;;4.68;2.50;;;22.80;68.80;;;;;;5045446;28;20030;-77
2022/09/05 10:06:42;;;;;;;5.28;2.55;;;22.80;69.40;;;;;;5045497;28;20032;-77
2022/09/05 10:09:44;;;;;;;5.53;2.70;;;22.80;68.90;;;;;;5045433;28;20099;-77
2022/09/05 10:12:48;;;;;;;5.78;2.72;;;22.80;69.00;;;;;;5044996;28;20033;-78
2022/09/05 10:15:55;;;;;;;5.20;2.60;;;22.80;69.00;;;;;;5045246;28;20032;-78
2022/09/05 10:18:53;;;;;;;5.28;2.75;;;22.70;69.10;;;;;;5045193;28;20040;-76
2022/09/05 10:21:24;;;;;;;4.60;2.40;;;22.70;69.10;;;;;;5043546;28;20033;-77
2022/09/05 10:24:18;;;;;;;5.40;2.90;;;22.70;69.20;;;;;;5044133;28;20033;-77
2022/09/05 10:27:06;;;;;;;5.43;2.67;;;22.70;69.10;;;;;;5043947;28;20025;-77
2022/09/05 10:29:38;;;;;;;4.80;2.40;;;22.70;69.10;;;;;;5043977;28;20063;-76
2022/09/05 10:32:07;;;;;;;4.63;2.40;;;22.70;69.10;;;;;;5044326;28;20017;-76
2022/09/05 10:34:55;;;;;;;5.20;2.47;;;22.70;69.00;;;;;;5046460;28;20033;-77
2022/09/05 10:37:26;;;;;;;6.30;2.90;;;22.80;69.00;;;;;;5045958;28;20551;-76
2022/09/05 10:39:53;;;;;;;;;;;22.80;68.90;;;;;;5046088;28;20598;-76
2022/09/05 10:42:42;;;;;;;4.18;2.47;;;22.70;68.90;;;;;;5046410;28;19908;-77
2022/09/05 10:45:44;;;;;;;4.70;2.42;;;22.70;69.00;;;;;;5045522;28;20040;-78
2022/09/05 10:48:38;;;;;;;4.40;2.47;;;22.70;69.10;;;;;;5045293;28;20082;-77
2022/09/05 10:51:20;;;;;;;5.43;2.55;;;22.70;69.30;;;;;;5036891;28;20029;-77
2022/09/05 10:54:00;;;;;;;4.82;2.47;;;22.60;69.40;;;;;;5048157;28;20492;-77
2022/09/05 10:56:36;;;;;;;4.68;2.40;;;22.50;69.50;;;;;;5047739;28;20029;-77
2022/09/05 10:59:06;;;;;;;3.58;2.20;;;22.50;69.70;;;;;;5047645;28;20123;-76
2022/09/05 11:01:42;;;;;;;5.53;2.83;;;22.50;69.80;;;;;;5047147;28;20029;-76
2022/09/05 11:04:12;;;;;;;4.72;2.30;;;22.50;69.80;;;;;;5049180;28;20060;-77
2022/09/05 11:06:41;;;;;;;4.82;2.60;;;22.50;70.00;;;;;;5043155;28;20025;-76
2022/09/05 11:09:47;;;;;;;4.57;2.50;;;22.40;69.90;;;;;;5046833;28;20036;-76
2022/09/05 11:12:31;;;;;;;4.07;2.30;;;22.50;70.00;;;;;;5046081;28;20028;-76
2022/09/05 11:15:00;;;;;;;4.47;2.35;;;22.40;70.00;;;;;;5046659;28;20490;-77
2022/09/05 11:17:38;;;;;;;4.82;2.38;;;22.50;69.90;;;;;;5027722;28;20037;-77
2022/09/05 11:20:37;;;;;;;4.10;2.17;;;22.40;69.80;;;;;;5029708;28;20029;-76
2022/09/05 11:23:28;;;;;;;4.32;2.30;;;22.50;69.90;;;;;;5027920;28;20045;-75
2022/09/05 11:26:07;;;;;;;5.50;2.72;;;22.50;69.90;;;;;;5044224;28;20068;-77
2022/09/05 11:28:56;;;;;;;4.63;2.25;;;22.40;69.90;;;;;;5027711;28;20289;-77
2022/09/05 11:31:38;;;;;;;4.28;2.20;;;22.50;69.90;;;;;;5027208;28;20641;-76
2022/09/05 11:34:33;;;;;;;4.45;2.15;;;22.50;70.00;;;;;;5027412;28;20022;-80
2022/09/05 11:37:01;;;;;;;4.88;2.40;;;22.50;69.90;;;;;;5026041;28;20033;-78
2022/09/05 11:39:44;;;;;;;4.43;2.40;;;22.50;69.90;;;;;;5030263;28;20079;-78
2022/09/05 11:42:26;;;;;;;4.18;2.40;;;22.50;69.90;;;;;;5040796;28;20033;-77
2022/09/05 11:45:18;;;;;;;4.35;2.33;;;22.50;69.80;;;;;;5046857;28;20591;-76
2022/09/05 11:48:20;;;;;;;3.53;2.20;;;22.50;69.80;;;;;;5048745;28;20068;-77
2022/09/05 11:51:16;;;;;;;3.95;2.10;;;22.60;69.90;;;;;;5048000;28;20036;-78
2022/09/05 11:54:11;;;;;;;5.13;2.22;;;22.50;69.80;;;;;;5049331;28;20437;-78
2022/09/05 11:57:13;;;;;;;3.65;2.25;;;22.50;69.80;;;;;;5048109;28;20025;-78
2022/09/05 11:59:41;;;;;;;4.05;2.13;;;22.50;69.80;;;;;;5047770;28;20025;-76
2022/09/05 12:02:39;;;;;;;4.03;2.20;;;22.50;69.80;;;;;;5042453;28;20045;-78
2022/09/05 12:05:51;;;;;;;3.75;2.20;;;22.50;69.80;;;;;;5034745;28;20507;-77
2022/09/05 12:08:31;;;;;;;4.68;2.40;;;22.50;70.20;;;;;;5036136;28;20029;-77
2022/09/05 12:11:19;;;;;;;3.13;2.00;;;22.60;69.60;;;;;;5049034;28;20025;-76
2022/09/05 12:13:51;;;;;;;3.78;2.10;;;22.60;69.50;;;;;;5047355;28;20740;-77
2022/09/05 12:16:37;;;;;;;3.65;2.10;;;22.60;69.60;;;;;;5046455;28;20520;-77
2022/09/05 12:19:19;;;;;;;3.53;1.92;;;22.60;69.50;;;;;;5049234;28;20373;-78
2022/09/05 12:22:02;;;;;;;3.80;2.13;;;22.60;69.60;;;;;;5047331;28;20079;-77
2022/09/05 12:24:54;;;;;;;3.13;1.90;;;22.60;69.50;;;;;;5046186;28;20499;-77
2022/09/05 12:27:28;;;;;;;3.75;2.15;;;22.60;69.60;;;;;;5047144;28;20043;-77
2022/09/05 12:29:58;;;;;;;4.07;2.20;;;22.60;69.70;;;;;;5047293;28;20476;-77
2022/09/05 12:32:24;;;;;;;3.80;2.20;;;22.50;69.70;;;;;;5046729;28;20032;-77
2022/09/05 12:34:56;;;;;;;3.63;2.13;;;22.50;69.70;;;;;;5046288;28;20027;-77
2022/09/05 12:37:22;;;;;;;3.92;1.90;;;22.50;69.70;;;;;;5047562;28;20381;-76
2022/09/05 12:39:58;;;;;;;3.90;2.00;;;22.60;69.90;;;;;;5047179;28;20055;-77
2022/09/05 12:42:27;;;;;;;4.90;2.20;;;22.50;69.90;;;;;;5045619;28;20043;-77
2022/09/05 12:45:07;;;;;;;3.42;2.10;;;22.40;69.90;;;;;;5045670;28;20214;-78
2022/09/05 12:47:50;;;;;;;3.58;1.90;;;22.50;70.00;;;;;;5045588;28;20061;-78
2022/09/05 12:50:18;;;;;;;3.83;1.98;;;22.50;69.80;;;;;;5046896;28;20033;-77
2022/09/05 12:53:08;;;;;;;3.72;2.05;;;22.50;69.80;;;;;;5046547;28;20495;-78
2022/09/05 12:56:02;;;;;;;3.72;2.03;;;22.50;69.70;;;;;;5046185;28;20033;-78
2022/09/05 12:58:29;;;;;;;2.92;1.90;;;22.50;69.60;;;;;;5044640;28;20596;-77
2022/09/05 13:01:15;;;;;;;4.50;2.30;;;22.50;69.60;;;;;;5045539;28;20446;-77
2022/09/05 13:03:51;;;;;;;4.05;2.28;;;22.50;69.80;;;;;;5039348;28;20041;-77
2022/09/05 13:06:44;;;;;;;4.03;2.35;;;22.50;70.00;;;;;;5047792;28;20029;-77
2022/09/05 13:09:22;;;;;;;4.25;2.25;;;22.40;70.00;;;;;;5038926;28;20450;-77
2022/09/05 13:12:19;;;;;;;3.97;2.05;;;22.40;70.10;;;;;;5045507;28;20021;-77
2022/09/05 13:15:04;;;;;;;3.10;2.00;;;22.40;70.20;;;;;;5039969;28;20602;-77
2022/09/05 13:17:50;;;;;;;4.10;2.10;;;22.40;70.20;;;;;;5044345;28;20036;-76
2022/09/05 13:20:35;;;;;;;3.63;1.92;;;22.40;70.20;;;;;;5062109;28;20037;-79
2022/09/05 13:23:26;;;;;;;4.00;2.10;;;22.40;70.30;;;;;;5045534;28;20068;-81
2022/09/05 13:26:11;;;;;;;3.25;2.05;;;22.30;70.30;;;;;;5034274;28;20048;-77
2022/09/05 13:28:53;;;;;;;3.67;2.17;;;22.30;70.30;;;;;;5065549;28;20043;-77
2022/09/05 13:31:41;;;;;;;3.35;1.95;;;22.30;70.40;;;;;;5042919;28;20486;-78
2022/09/05 13:34:22;;;;;;;3.53;2.10;;;22.30;70.40;;;;;;5051676;28;20083;-78
2022/09/05 13:37:06;;;;;;;2.95;1.90;;;22.40;70.50;;;;;;5065907;28;20303;-77
2022/09/05 13:39:50;;;;;;;2.97;1.95;;;22.40;70.40;;;;;;5064984;28;20055;-78
2022/09/05 13:42:20;;;;;;;4.25;2.30;;;22.40;70.30;;;;;;5064484;28;20031;-76
2022/09/05 13:44:52;;;;;;;3.33;2.08;;;22.40;70.80;;;;;;5047246;28;20297;-77
2022/09/05 13:47:30;;;;;;;3.45;2.17;;;22.40;70.30;;;;;;5065642;28;20423;-78
2022/09/05 13:50:21;;;;;;;3.47;2.00;;;22.40;70.30;;;;;;5064309;28;20029;-78
2022/09/05 13:52:56;;;;;;;3.83;2.10;;;22.30;70.30;;;;;;5065611;28;20036;-77
2022/09/05 13:55:42;;;;;;;3.83;2.00;;;22.30;70.40;;;;;;5063400;28;20028;-78
2022/09/05 13:58:22;;;;;;;3.35;2.00;;;22.30;70.40;;;;;;5064125;28;20041;-78
2022/09/05 14:01:05;;;;;;;;;;;22.30;70.60;;;;;;5063582;28;20040;-79
2022/09/05 14:03:42;;;;;;;3.80;2.08;;;22.30;70.70;;;;;;5047492;28;19913;-77
2022/09/05 14:06:29;;;;;;;3.10;1.88;;;22.20;70.60;;;;;;5063767;28;20029;-78
2022/09/05 14:09:33;;;;;;;3.53;2.20;;;22.30;70.80;;;;;;5062970;28;20029;-78
2022/09/05 14:12:22;;;;;;;3.20;2.10;;;22.20;70.70;;;;;;5062898;28;20564;-78
2022/09/05 14:14:53;;;;;;;3.10;1.83;;;22.20;70.80;;;;;;5063348;28;20044;-78
2022/09/05 14:17:19;;;;;;;3.83;1.80;;;22.20;70.80;;;;;;5047869;28;20648;-77
2022/09/05 14:23:05;;;;;;;3.13;1.90;;;22.20;70.90;;;;;;5046757;28;20652;-77